Portada
METAR-TAF:

METAR-TAF

Aeroports :

Aeroport de Ben Slimane

Benslimane, Marroc

latitud: 33-39-20N, longitud: 007-13-17W, altitud: 191 m

Observació

L'informe es va fer fa 26 minuts, a les 11:00 UTC
Vent 7 kt del Nord/Nord-Oest, variant entre Oest i Nord/Nord-Est
Temperatura 27°C
Humitat 58%
Pressió 1017 hPa
Visibilitat 10 km o més
Escasses núvols a una alçada de 1300 ft

METAR: GMMB 051100Z 33007KT 280V030 9999 FEW013 27/18 Q1017 NOSIG

Hora: 12:26 (11:26 UTC)


TAF: manca

Observacions i pronòstics meteorològics de més de 4000 aeroports (METAR i TAF).

Les estacions disponibles són els punts grocs i vermells al mapa.

Posi el ratolí al punt desitjat per veure el nom de l'estació.

Feu clic per veure les observacions i els pronòstics meteorològics.

Per canviar el mapa: feu clic els botons verds amb una creu de color negre per apropar; al botó verd amb un guió per allunyar la imatge; o en les fletxes verdes per a mapes adjacents.


METAR-TAF: